Time;durP1;ratioP1;P1;durP2;ratioP2;P2;SDS_P1;SDS_P2;PMS_P1;PMS_P2;Temp;Humidity;BMP_temperature;BMP_pressure;BME280_temperature;BME280_humidity;BME280_pressure;Samples;Min_cycle;Max_cycle;Signal;HPM_P1;HPM_P2
2023/10/08 00:03:58;;;;;;;0.00;0.00;;;;;;;;;;9761553;28;22160;-77
2023/10/08 00:09:08;;;;;;;0.00;0.00;;;;;;;;;;9754520;28;20350;-77
2023/10/08 00:14:10;;;;;;;0.00;0.00;;;;;;;;;;9755883;28;20349;-77
2023/10/08 00:19:13;;;;;;;0.10;0.10;;;;;;;;;;9760865;28;20321;-76
2023/10/08 00:24:15;;;;;;;0.00;0.00;;;;;;;;;;9723019;28;20296;-76
2023/10/08 00:29:16;;;;;;;0.00;0.00;;;;;;;;;;9718318;28;22511;-76
2023/10/08 00:34:19;;;;;;;0.10;0.10;;;;;;;;;;9731408;28;20216;-77
2023/10/08 00:39:24;;;;;;;0.00;0.00;;;;;;;;;;9727490;28;20231;-74
2023/10/08 00:44:29;;;;;;;0.00;0.00;;;;;;;;;;9766251;28;20247;-77
2023/10/08 00:55:29;;;;;;;0.00;0.00;;;;;;;;;;9736362;28;20258;-76
2023/10/08 01:00:17;;;;;;;0.00;0.00;;;;;;;;;;9742732;28;20227;-78
2023/10/08 01:05:23;;;;;;;0.00;0.00;;;;;;;;;;9701831;28;22487;-77
2023/10/08 01:10:24;;;;;;;0.00;0.00;;;;;;;;;;10198391;28;20207;-79
2023/10/08 01:15:29;;;;;;;0.00;0.00;;;;;;;;;;10374752;28;20222;-78
2023/10/08 01:20:34;;;;;;;0.00;0.00;;;;;;;;;;10384371;28;20223;-78
2023/10/08 01:25:35;;;;;;;0.08;0.05;;;;;;;;;;10337731;28;20228;-78
2023/10/08 01:30:41;;;;;;;0.25;0.00;;;;;;;;;;10345217;28;20968;-79
2023/10/08 01:35:42;;;;;;;0.03;0.00;;;;;;;;;;10364323;28;20290;-79
2023/10/08 01:40:50;;;;;;;0.00;0.00;;;;;;;;;;10368542;28;20215;-79
2023/10/08 01:45:52;;;;;;;0.03;0.03;;;;;;;;;;10379193;28;20223;-80
2023/10/08 01:50:55;;;;;;;0.00;0.00;;;;;;;;;;10386205;28;20737;-80
2023/10/08 01:55:58;;;;;;;1.30;0.10;;;;;;;;;;10352598;28;20212;-79
2023/10/08 02:01:00;;;;;;;0.95;0.15;;;;;;;;;;10357767;28;20231;-79
2023/10/08 02:06:05;;;;;;;1.75;0.30;;;;;;;;;;10366129;28;20725;-79
2023/10/08 02:11:08;;;;;;;3.38;0.35;;;;;;;;;;10373776;28;20834;-80
2023/10/08 02:16:09;;;;;;;2.70;0.47;;;;;;;;;;10367645;28;20748;-80
2023/10/08 02:21:10;;;;;;;3.28;0.32;;;;;;;;;;10387643;28;20605;-80
2023/10/08 02:26:14;;;;;;;0.73;0.20;;;;;;;;;;10342082;28;20228;-78
2023/10/08 02:31:15;;;;;;;0.38;0.25;;;;;;;;;;10363619;28;20215;-80
2023/10/08 02:36:16;;;;;;;0.93;0.45;;;;;;;;;;10379357;28;20211;-80
2023/10/08 02:41:17;;;;;;;0.50;0.50;;;;;;;;;;10360716;28;20227;-80
2023/10/08 02:46:18;;;;;;;2.50;1.15;;;;;;;;;;10371315;28;20334;-80
2023/10/08 02:51:20;;;;;;;0.82;0.30;;;;;;;;;;10391644;28;20214;-80
2023/10/08 02:56:22;;;;;;;2.25;0.30;;;;;;;;;;10377032;28;20226;-80
2023/10/08 03:01:23;;;;;;;1.98;0.45;;;;;;;;;;10369212;28;20227;-80
2023/10/08 03:06:24;;;;;;;3.80;0.30;;;;;;;;;;10393487;28;20219;-80
2023/10/08 03:11:26;;;;;;;1.55;0.20;;;;;;;;;;10366286;28;20203;-79
2023/10/08 03:16:28;;;;;;;1.73;0.25;;;;;;;;;;10376459;28;20215;-80
2023/10/08 03:26:40;;;;;;;1.15;0.77;;;;;;;;;;10378099;28;20251;-80
2023/10/08 03:36:50;;;;;;;2.85;0.40;;;;;;;;;;9823815;28;20349;-77
2023/10/08 03:41:57;;;;;;;0.90;0.30;;;;;;;;;;9805886;28;20324;-78
2023/10/08 03:46:59;;;;;;;0.73;0.22;;;;;;;;;;9795213;28;20227;-78
2023/10/08 03:52:01;;;;;;;0.20;0.20;;;;;;;;;;9753902;28;22337;-76
2023/10/08 03:57:13;;;;;;;2.28;0.40;;;;;;;;;;9751145;28;22564;-78
2023/10/08 04:02:22;;;;;;;0.20;0.20;;;;;;;;;;9708943;28;20223;-75
2023/10/08 04:07:28;;;;;;;2.13;0.30;;;;;;;;;;9729305;28;21721;-78
2023/10/08 04:12:29;;;;;;;0.30;0.30;;;;;;;;;;9719118;28;20218;-76
2023/10/08 04:17:36;;;;;;;1.33;0.45;;;;;;;;;;9757118;28;21312;-75
2023/10/08 04:22:37;;;;;;;0.20;0.20;;;;;;;;;;9749601;28;20231;-77
2023/10/08 04:27:38;;;;;;;0.57;0.38;;;;;;;;;;9730354;28;21626;-77
2023/10/08 04:32:39;;;;;;;0.50;0.35;;;;;;;;;;9751682;28;20262;-75
2023/10/08 04:37:41;;;;;;;0.30;0.30;;;;;;;;;;9752012;28;20222;-76
2023/10/08 04:42:45;;;;;;;1.02;0.30;;;;;;;;;;9731794;28;20256;-77
2023/10/08 04:47:49;;;;;;;2.95;0.40;;;;;;;;;;9772698;28;20353;-78
2023/10/08 04:52:58;;;;;;;0.85;0.40;;;;;;;;;;9748244;28;20222;-76
2023/10/08 04:58:00;;;;;;;0.90;0.40;;;;;;;;;;9737421;28;22377;-77
2023/10/08 05:03:10;;;;;;;0.93;0.43;;;;;;;;;;9757860;28;20262;-79
2023/10/08 05:08:28;;;;;;;0.40;0.40;;;;;;;;;;10350706;28;20227;-78
2023/10/08 05:13:35;;;;;;;1.55;0.40;;;;;;;;;;10355573;28;20211;-79
2023/10/08 05:19:07;;;;;;;1.15;0.60;;;;;;;;;;10367279;28;20294;-79
2023/10/08 05:24:09;;;;;;;0.65;0.40;;;;;;;;;;10366689;28;20219;-79
2023/10/08 05:29:29;;;;;;;0.85;0.30;;;;;;;;;;10387716;28;20712;-78
2023/10/08 05:34:42;;;;;;;0.85;0.40;;;;;;;;;;10381912;28;20239;-79
2023/10/08 05:39:46;;;;;;;1.45;0.30;;;;;;;;;;10385720;28;20304;-78
2023/10/08 05:45:14;;;;;;;1.77;0.30;;;;;;;;;;10328484;28;20231;-77
2023/10/08 05:55:27;;;;;;;2.10;0.63;;;;;;;;;;10361926;28;20194;-79
2023/10/08 06:05:43;;;;;;;1.48;0.60;;;;;;;;;;10362656;28;20223;-78
2023/10/08 06:10:56;;;;;;;4.55;0.30;;;;;;;;;;10385772;28;20226;-78
2023/10/08 06:21:08;;;;;;;0.57;0.30;;;;;;;;;;10364840;28;20223;-78
2023/10/08 06:31:23;;;;;;;2.88;0.40;;;;;;;;;;10364618;28;20356;-77
2023/10/08 06:36:25;;;;;;;3.22;0.40;;;;;;;;;;10366776;28;21121;-77
2023/10/08 06:41:33;;;;;;;0.38;0.38;;;;;;;;;;10386351;28;20321;-80
2023/10/08 06:46:34;;;;;;;0.30;0.30;;;;;;;;;;10380159;28;20222;-79
2023/10/08 06:51:36;;;;;;;1.55;0.40;;;;;;;;;;10384336;28;20673;-79
2023/10/08 06:56:38;;;;;;;0.35;0.35;;;;;;;;;;10386175;28;20254;-79
2023/10/08 07:01:39;;;;;;;1.35;0.50;;;;;;;;;;10367377;28;20697;-80
2023/10/08 07:06:40;;;;;;;0.85;0.40;;;;;;;;;;9974085;28;21265;-75
2023/10/08 07:11:45;;;;;;;4.57;0.60;;;;;;;;;;9742663;28;21922;-74
2023/10/08 07:16:48;;;;;;;2.30;0.43;;;;;;;;;;9736910;28;22354;-74
2023/10/08 07:21:53;;;;;;;2.58;0.38;;;;;;;;;;9711356;28;20219;-76
2023/10/08 07:26:55;;;;;;;1.15;0.60;;;;;;;;;;9700742;28;21651;-76
2023/10/08 07:31:56;;;;;;;4.03;0.40;;;;;;;;;;9707516;28;20257;-74
2023/10/08 07:36:57;;;;;;;0.60;0.40;;;;;;;;;;9676125;28;21862;-76
2023/10/08 07:42:00;;;;;;;0.60;0.45;;;;;;;;;;9690417;28;20345;-74
2023/10/08 07:47:01;;;;;;;0.75;0.50;;;;;;;;;;9749436;28;20231;-75
2023/10/08 07:52:05;;;;;;;0.60;0.30;;;;;;;;;;9709213;28;20223;-75
2023/10/08 07:57:11;;;;;;;0.82;0.43;;;;;;;;;;9719228;28;20333;-77
2023/10/08 08:02:13;;;;;;;0.57;0.40;;;;;;;;;;9700122;28;20285;-74
2023/10/08 08:07:17;;;;;;;1.65;0.40;;;;;;;;;;9709166;28;20267;-76
2023/10/08 08:12:19;;;;;;;0.45;0.45;;;;;;;;;;9708986;28;20712;-75
2023/10/08 08:17:22;;;;;;;3.72;0.47;;;;;;;;;;9739935;28;20306;-75
2023/10/08 08:22:30;;;;;;;0.60;0.40;;;;;;;;;;9707706;28;22407;-76
2023/10/08 08:27:31;;;;;;;1.25;0.57;;;;;;;;;;9742625;28;21636;-74
2023/10/08 08:32:33;;;;;;;3.30;0.65;;;;;;;;;;9740961;28;21824;-73
2023/10/08 08:37:35;;;;;;;1.55;0.60;;;;;;;;;;9721273;28;20227;-76
2023/10/08 08:42:37;;;;;;;2.15;0.80;;;;;;;;;;9726982;28;20354;-74
2023/10/08 08:47:40;;;;;;;1.20;0.68;;;;;;;;;;9736514;28;20227;-76
2023/10/08 08:52:42;;;;;;;2.42;0.90;;;;;;;;;;9728206;28;20219;-74
2023/10/08 08:57:43;;;;;;;1.25;0.80;;;;;;;;;;9722369;28;21977;-75
2023/10/08 09:02:49;;;;;;;1.08;0.80;;;;;;;;;;10252230;28;20681;-77
2023/10/08 09:07:54;;;;;;;2.25;0.60;;;;;;;;;;10380468;28;20653;-77
2023/10/08 09:12:59;;;;;;;0.70;0.60;;;;;;;;;;10367110;28;20247;-77
2023/10/08 09:18:03;;;;;;;5.00;0.75;;;;;;;;;;10374541;28;20207;-77
2023/10/08 09:23:07;;;;;;;2.45;0.60;;;;;;;;;;10377604;28;20239;-77
2023/10/08 09:28:09;;;;;;;1.27;0.65;;;;;;;;;;10387635;28;20318;-77
2023/10/08 09:33:12;;;;;;;2.00;0.82;;;;;;;;;;10379632;28;20245;-78
2023/10/08 09:38:13;;;;;;;1.05;0.40;;;;;;;;;;10394242;28;20597;-77
2023/10/08 09:43:16;;;;;;;1.98;0.50;;;;;;;;;;10354197;28;20316;-77
2023/10/08 09:48:19;;;;;;;1.17;0.60;;;;;;;;;;10385624;28;20242;-77
2023/10/08 09:53:26;;;;;;;4.47;0.52;;;;;;;;;;10364256;28;20314;-76
2023/10/08 09:58:28;;;;;;;2.97;0.50;;;;;;;;;;10346209;28;20313;-77
2023/10/08 10:03:30;;;;;;;1.30;0.90;;;;;;;;;;10370839;28;20310;-77
2023/10/08 10:08:35;;;;;;;1.92;0.60;;;;;;;;;;10368365;28;20692;-77
2023/10/08 10:13:40;;;;;;;1.85;0.60;;;;;;;;;;10352099;28;20207;-76
2023/10/08 10:18:46;;;;;;;2.03;0.77;;;;;;;;;;10354671;28;20946;-77
2023/10/08 10:23:50;;;;;;;1.92;0.70;;;;;;;;;;10366336;28;20918;-77
2023/10/08 10:29:10;;;;;;;1.55;0.47;;;;;;;;;;10364074;28;21063;-77
2023/10/08 10:34:12;;;;;;;0.90;0.30;;;;;;;;;;10351290;28;20235;-77
2023/10/08 10:39:16;;;;;;;0.95;0.40;;;;;;;;;;10385628;28;20208;-78
2023/10/08 10:44:18;;;;;;;4.72;0.40;;;;;;;;;;10345976;28;20207;-78
2023/10/08 10:49:23;;;;;;;0.65;0.50;;;;;;;;;;10372387;28;20215;-77
2023/10/08 10:54:25;;;;;;;0.40;0.40;;;;;;;;;;10345101;28;20767;-78
2023/10/08 10:59:27;;;;;;;2.17;0.50;;;;;;;;;;10337123;28;20215;-78
2023/10/08 11:04:28;;;;;;;2.47;0.57;;;;;;;;;;10372956;28;20764;-77
2023/10/08 11:09:37;;;;;;;4.50;0.50;;;;;;;;;;9765793;28;20316;-76
2023/10/08 11:14:41;;;;;;;0.40;0.40;;;;;;;;;;9692325;28;20350;-76
2023/10/08 11:19:45;;;;;;;2.33;0.65;;;;;;;;;;9687785;28;21588;-76
2023/10/08 11:24:53;;;;;;;0.30;0.30;;;;;;;;;;9679441;28;22519;-76
2023/10/08 11:29:58;;;;;;;0.30;0.30;;;;;;;;;;9718180;28;20340;-77
2023/10/08 11:35:00;;;;;;;0.32;0.32;;;;;;;;;;9735452;28;20234;-76
2023/10/08 11:40:09;;;;;;;0.40;0.40;;;;;;;;;;9709841;28;20890;-75
2023/10/08 11:45:27;;;;;;;2.00;0.50;;;;;;;;;;9715041;28;22374;-78
2023/10/08 11:50:32;;;;;;;1.30;0.30;;;;;;;;;;9715541;28;20237;-77
2023/10/08 11:55:38;;;;;;;1.38;0.40;;;;;;;;;;9695840;28;21607;-75
2023/10/08 12:00:51;;;;;;;0.28;0.28;;;;;;;;;;9695628;28;20361;-75
2023/10/08 12:05:59;;;;;;;1.55;0.30;;;;;;;;;;9713762;28;20303;-77
2023/10/08 12:11:00;;;;;;;0.35;0.35;;;;;;;;;;9727787;28;20325;-76
2023/10/08 12:16:14;;;;;;;0.60;0.30;;;;;;;;;;9723020;28;22173;-76
2023/10/08 12:21:17;;;;;;;0.88;0.40;;;;;;;;;;9771969;28;20254;-76
2023/10/08 12:26:19;;;;;;;0.63;0.30;;;;;;;;;;9731799;28;21740;-77
2023/10/08 12:31:24;;;;;;;0.82;0.50;;;;;;;;;;9756181;28;22260;-76
2023/10/08 12:36:26;;;;;;;0.63;0.40;;;;;;;;;;9743196;28;20253;-76
2023/10/08 12:41:27;;;;;;;1.52;0.30;;;;;;;;;;9716645;28;20334;-76
2023/10/08 12:46:31;;;;;;;1.25;0.38;;;;;;;;;;9705932;28;20215;-76
2023/10/08 12:51:32;;;;;;;1.40;0.60;;;;;;;;;;9720046;28;21268;-75
2023/10/08 12:56:48;;;;;;;3.65;0.45;;;;;;;;;;9957940;28;20577;-78
2023/10/08 13:01:51;;;;;;;0.77;0.40;;;;;;;;;;10358626;28;20216;-78
2023/10/08 13:06:56;;;;;;;1.13;0.60;;;;;;;;;;10403928;28;20226;-78
2023/10/08 13:11:59;;;;;;;0.82;0.47;;;;;;;;;;10386278;28;20861;-79
2023/10/08 13:17:01;;;;;;;0.50;0.50;;;;;;;;;;10375087;28;20634;-79
2023/10/08 13:22:06;;;;;;;1.35;0.40;;;;;;;;;;10352117;28;20544;-80
2023/10/08 13:27:07;;;;;;;0.43;0.30;;;;;;;;;;10364794;28;21553;-80
2023/10/08 13:32:17;;;;;;;0.30;0.30;;;;;;;;;;10374827;28;20222;-79
2023/10/08 13:37:18;;;;;;;0.93;0.40;;;;;;;;;;10374594;28;20223;-79
2023/10/08 13:42:20;;;;;;;0.65;0.30;;;;;;;;;;10369968;28;20227;-79
2023/10/08 13:47:25;;;;;;;0.30;0.30;;;;;;;;;;10372550;28;20219;-78
2023/10/08 13:52:26;;;;;;;0.45;0.45;;;;;;;;;;10347390;28;20245;-80
2023/10/08 13:57:30;;;;;;;0.80;0.50;;;;;;;;;;10362393;28;20211;-80
2023/10/08 14:02:31;;;;;;;0.50;0.40;;;;;;;;;;10345277;28;20215;-80
2023/10/08 14:07:35;;;;;;;2.42;0.45;;;;;;;;;;10395564;28;20719;-80
2023/10/08 14:12:37;;;;;;;0.52;0.52;;;;;;;;;;10363206;28;20294;-81
2023/10/08 14:18:04;;;;;;;1.25;0.30;;;;;;;;;;10372789;28;20855;-80
2023/10/08 14:23:02;;;;;;;0.77;0.40;;;;;;;;;;10394552;28;20245;-80
2023/10/08 14:28:08;;;;;;;2.20;0.50;;;;;;;;;;10313355;28;20793;-81
2023/10/08 14:33:13;;;;;;;3.67;0.50;;;;;;;;;;10352355;28;20243;-82
2023/10/08 14:43:34;;;;;;;0.40;0.40;;;;;;;;;;10353481;28;20224;-80
2023/10/08 14:48:35;;;;;;;1.50;0.60;;;;;;;;;;10344332;28;20227;-81
2023/10/08 14:53:38;;;;;;;4.50;0.40;;;;;;;;;;10316786;28;20242;-81
2023/10/08 14:58:41;;;;;;;0.40;0.22;;;;;;;;;;10340353;28;20316;-81
2023/10/08 15:03:42;;;;;;;0.30;0.30;;;;;;;;;;10325455;28;20289;-82
2023/10/08 15:08:43;;;;;;;1.95;0.40;;;;;;;;;;9913865;28;21167;-79
2023/10/08 15:13:45;;;;;;;1.60;0.47;;;;;;;;;;9641624;28;20564;-78
2023/10/08 15:18:46;;;;;;;0.45;0.30;;;;;;;;;;9684221;28;20311;-74
2023/10/08 15:23:48;;;;;;;1.15;0.32;;;;;;;;;;9614924;28;21070;-74
2023/10/08 15:28:49;;;;;;;0.35;0.30;;;;;;;;;;9654221;28;21405;-75
2023/10/08 15:33:50;;;;;;;0.47;0.47;;;;;;;;;;9623837;28;21301;-74
2023/10/08 15:38:51;;;;;;;0.35;0.35;;;;;;;;;;9628676;28;21264;-77
2023/10/08 15:43:54;;;;;;;0.40;0.40;;;;;;;;;;9631463;28;21747;-75
2023/10/08 15:48:55;;;;;;;0.32;0.32;;;;;;;;;;9692254;28;21387;-74
2023/10/08 15:53:56;;;;;;;0.43;0.30;;;;;;;;;;9644356;28;20865;-75
2023/10/08 15:58:57;;;;;;;1.20;0.32;;;;;;;;;;9639937;28;21191;-75
2023/10/08 16:03:58;;;;;;;0.93;0.40;;;;;;;;;;9647542;28;20662;-74
2023/10/08 16:08:59;;;;;;;0.40;0.30;;;;;;;;;;9674912;28;20237;-74
2023/10/08 16:14:00;;;;;;;1.45;0.40;;;;;;;;;;9716079;28;21437;-75
2023/10/08 16:19:01;;;;;;;1.55;0.50;;;;;;;;;;9748343;28;22067;-76
2023/10/08 16:24:02;;;;;;;0.40;0.40;;;;;;;;;;9698172;28;22304;-73
2023/10/08 16:29:05;;;;;;;0.40;0.40;;;;;;;;;;9717112;28;22424;-74
2023/10/08 16:34:08;;;;;;;1.55;0.73;;;;;;;;;;9713833;28;20933;-74
2023/10/08 16:39:27;;;;;;;2.05;0.60;;;;;;;;;;9746837;28;22378;-75
2023/10/08 16:44:29;;;;;;;0.60;0.60;;;;;;;;;;9741116;28;20953;-74
2023/10/08 16:49:30;;;;;;;3.58;0.70;;;;;;;;;;9751181;28;20308;-75
2023/10/08 16:54:31;;;;;;;1.17;0.70;;;;;;;;;;10174027;28;20653;-79
2023/10/08 16:59:32;;;;;;;2.20;0.80;;;;;;;;;;10364052;28;20212;-79
2023/10/08 17:04:33;;;;;;;1.05;0.88;;;;;;;;;;10347489;28;20218;-81
2023/10/08 17:09:35;;;;;;;0.70;0.70;;;;;;;;;;10357383;28;20710;-79
2023/10/08 17:14:37;;;;;;;1.95;0.60;;;;;;;;;;10360248;28;20214;-78
2023/10/08 17:19:38;;;;;;;1.75;0.93;;;;;;;;;;10366144;28;21488;-78
2023/10/08 17:24:41;;;;;;;2.47;1.27;;;;;;;;;;10384780;28;20240;-78
2023/10/08 17:29:42;;;;;;;1.48;1.38;;;;;;;;;;10382454;28;20219;-79
2023/10/08 17:34:43;;;;;;;1.58;1.38;;;;;;;;;;10364359;28;20211;-78
2023/10/08 17:39:45;;;;;;;1.20;1.10;;;;;;;;;;10358125;28;20210;-79
2023/10/08 17:44:46;;;;;;;1.58;1.50;;;;;;;;;;10370283;28;20215;-79
2023/10/08 17:49:48;;;;;;;3.05;1.20;;;;;;;;;;10369345;28;20265;-78
2023/10/08 17:54:50;;;;;;;3.13;1.02;;;;;;;;;;10367629;28;20212;-78
2023/10/08 17:59:52;;;;;;;4.03;1.17;;;;;;;;;;10361544;28;20223;-78
2023/10/08 18:04:53;;;;;;;3.35;1.10;;;;;;;;;;10390405;28;20223;-79
2023/10/08 18:09:54;;;;;;;1.35;1.30;;;;;;;;;;10371267;28;20215;-78
2023/10/08 18:14:55;;;;;;;2.22;1.33;;;;;;;;;;10370021;28;20296;-78
2023/10/08 18:19:56;;;;;;;1.90;1.80;;;;;;;;;;10390155;28;20350;-78
2023/10/08 18:24:57;;;;;;;1.38;1.35;;;;;;;;;;10356175;28;20223;-79
2023/10/08 18:29:58;;;;;;;2.28;2.08;;;;;;;;;;10353906;28;20821;-79
2023/10/08 18:35:02;;;;;;;3.42;2.17;;;;;;;;;;10372454;28;20211;-78
2023/10/08 18:40:12;;;;;;;8.52;2.00;;;;;;;;;;10368309;28;20215;-78
2023/10/08 18:45:16;;;;;;;2.92;2.83;;;;;;;;;;10387771;28;20188;-78
2023/10/08 18:50:17;;;;;;;2.38;2.28;;;;;;;;;;10394551;28;20216;-78
2023/10/08 18:55:22;;;;;;;3.15;1.60;;;;;;;;;;9881584;28;20810;-75
2023/10/08 19:00:26;;;;;;;2.13;1.70;;;;;;;;;;9684520;28;21218;-75
2023/10/08 19:05:27;;;;;;;2.03;1.90;;;;;;;;;;9777371;28;20273;-76
2023/10/08 19:10:30;;;;;;;2.15;2.08;;;;;;;;;;9761599;28;22146;-76
2023/10/08 19:15:31;;;;;;;2.90;2.63;;;;;;;;;;9701053;28;20220;-77
2023/10/08 19:20:37;;;;;;;2.83;2.55;;;;;;;;;;9763016;28;21466;-76
2023/10/08 19:25:39;;;;;;;2.20;2.10;;;;;;;;;;9782403;28;21577;-77
2023/10/08 19:30:41;;;;;;;2.33;2.22;;;;;;;;;;9711435;28;20235;-75
2023/10/08 19:35:46;;;;;;;3.55;2.08;;;;;;;;;;9722008;28;21847;-76
2023/10/08 19:40:47;;;;;;;3.47;2.05;;;;;;;;;;9680255;28;20233;-76
2023/10/08 19:45:48;;;;;;;1.77;1.77;;;;;;;;;;9674837;28;22220;-76
2023/10/08 19:50:51;;;;;;;1.70;1.60;;;;;;;;;;9725961;28;20230;-78
2023/10/08 19:55:52;;;;;;;2.05;1.95;;;;;;;;;;9704592;28;20364;-76
2023/10/08 20:00:53;;;;;;;1.70;1.60;;;;;;;;;;9680975;28;20297;-75
2023/10/08 20:05:55;;;;;;;1.77;1.67;;;;;;;;;;9692541;28;20211;-77
2023/10/08 20:10:56;;;;;;;1.20;1.20;;;;;;;;;;9761739;28;21115;-77
2023/10/08 20:15:57;;;;;;;3.10;1.27;;;;;;;;;;9771964;28;20346;-76
2023/10/08 20:20:59;;;;;;;3.10;1.20;;;;;;;;;;9798841;28;20238;-77
2023/10/08 20:26:00;;;;;;;2.60;1.35;;;;;;;;;;9773107;28;20357;-77
2023/10/08 20:31:01;;;;;;;2.55;1.50;;;;;;;;;;9782434;28;21136;-76
2023/10/08 20:36:04;;;;;;;1.30;1.02;;;;;;;;;;9754204;28;21228;-76
2023/10/08 20:41:06;;;;;;;1.73;1.25;;;;;;;;;;9772493;28;20249;-76
2023/10/08 20:46:07;;;;;;;1.42;1.02;;;;;;;;;;9778373;28;20219;-77
2023/10/08 20:51:12;;;;;;;1.00;0.90;;;;;;;;;;10295637;28;20780;-78
2023/10/08 20:56:13;;;;;;;2.05;0.90;;;;;;;;;;10374011;28;20437;-76
2023/10/08 21:01:17;;;;;;;1.92;1.20;;;;;;;;;;10376760;28;20223;-79
2023/10/08 21:06:19;;;;;;;1.38;0.80;;;;;;;;;;10377555;28;20688;-78
2023/10/08 21:11:20;;;;;;;1.08;0.95;;;;;;;;;;10378302;28;20307;-76
2023/10/08 21:16:21;;;;;;;1.20;1.10;;;;;;;;;;10399826;28;20313;-76
2023/10/08 21:21:22;;;;;;;2.15;0.70;;;;;;;;;;10403708;28;20219;-76
2023/10/08 21:26:23;;;;;;;0.80;0.80;;;;;;;;;;10363988;28;20272;-77
2023/10/08 21:31:25;;;;;;;1.58;0.90;;;;;;;;;;10363752;28;20230;-76
2023/10/08 21:36:26;;;;;;;0.80;0.80;;;;;;;;;;10395776;28;20207;-76
2023/10/08 21:41:28;;;;;;;0.60;0.60;;;;;;;;;;10380524;28;20291;-77
2023/10/08 21:46:29;;;;;;;0.60;0.60;;;;;;;;;;10380546;28;20663;-77
2023/10/08 21:51:30;;;;;;;1.55;0.68;;;;;;;;;;10387910;28;20238;-76
2023/10/08 21:56:31;;;;;;;0.80;0.80;;;;;;;;;;10401274;28;20793;-76
2023/10/08 22:01:39;;;;;;;1.15;1.00;;;;;;;;;;10393268;28;20226;-77
2023/10/08 22:06:43;;;;;;;1.73;0.65;;;;;;;;;;10376212;28;20208;-76
2023/10/08 22:11:44;;;;;;;0.95;0.95;;;;;;;;;;10395935;28;20214;-77
2023/10/08 22:16:46;;;;;;;3.50;1.38;;;;;;;;;;10376591;28;20215;-77
2023/10/08 22:21:48;;;;;;;1.33;0.80;;;;;;;;;;10361268;28;20338;-77
2023/10/08 22:26:51;;;;;;;0.77;0.77;;;;;;;;;;10380845;28;20326;-78
2023/10/08 22:31:52;;;;;;;0.70;0.70;;;;;;;;;;10398393;28;20313;-77
2023/10/08 22:37:19;;;;;;;0.82;0.80;;;;;;;;;;10375142;28;20310;-77
2023/10/08 22:42:25;;;;;;;2.45;0.63;;;;;;;;;;10370341;28;20231;-77
2023/10/08 22:47:31;;;;;;;1.48;0.80;;;;;;;;;;10376093;28;20281;-75
2023/10/08 22:52:32;;;;;;;0.70;0.70;;;;;;;;;;9765646;28;22150;-74
2023/10/08 22:57:34;;;;;;;0.82;0.60;;;;;;;;;;9763523;28;21218;-73
2023/10/08 23:02:38;;;;;;;1.95;0.65;;;;;;;;;;9770357;28;21325;-73
2023/10/08 23:07:41;;;;;;;0.57;0.50;;;;;;;;;;9774313;28;20219;-73
2023/10/08 23:12:42;;;;;;;1.63;0.75;;;;;;;;;;9772289;28;20219;-75
2023/10/08 23:17:43;;;;;;;0.52;0.52;;;;;;;;;;9787487;28;21019;-74
2023/10/08 23:22:44;;;;;;;2.30;0.50;;;;;;;;;;9772206;28;20223;-74
2023/10/08 23:27:46;;;;;;;0.85;0.40;;;;;;;;;;9755536;28;21079;-75
2023/10/08 23:32:50;;;;;;;0.40;0.40;;;;;;;;;;9782551;28;22283;-74
2023/10/08 23:37:53;;;;;;;0.55;0.40;;;;;;;;;;9776718;28;20256;-74
2023/10/08 23:42:54;;;;;;;0.88;0.70;;;;;;;;;;9797718;28;21293;-74
2023/10/08 23:48:01;;;;;;;1.48;0.47;;;;;;;;;;9808879;28;20226;-74
2023/10/08 23:53:10;;;;;;;1.77;0.57;;;;;;;;;;9764840;28;21416;-74
2023/10/08 23:58:16;;;;;;;1.60;0.70;;;;;;;;;;9803810;28;20228;-75
